sensor_id;sensor_type;location;lat;lon;timestamp;P1;durP1;ratioP1;P2;durP2;ratioP2
72209;SDS011;60113;48.762;12.302;2024-03-25T00:00:32;7.03;;;2.90;;
72209;SDS011;60113;48.762;12.302;2024-03-25T00:03:00;5.43;;;2.72;;
72209;SDS011;60113;48.762;12.302;2024-03-25T00:05:26;5.43;;;2.47;;
72209;SDS011;60113;48.762;12.302;2024-03-25T00:07:52;5.47;;;2.42;;
72209;SDS011;60113;48.762;12.302;2024-03-25T00:10:18;7.30;;;2.70;;
72209;SDS011;60113;48.762;12.302;2024-03-25T00:12:45;4.85;;;2.28;;
72209;SDS011;60113;48.762;12.302;2024-03-25T00:15:12;4.57;;;2.63;;
72209;SDS011;60113;48.762;12.302;2024-03-25T00:17:40;8.25;;;3.05;;
72209;SDS011;60113;48.762;12.302;2024-03-25T00:20:09;7.55;;;2.90;;
72209;SDS011;60113;48.762;12.302;2024-03-25T00:22:36;7.10;;;2.47;;
72209;SDS011;60113;48.762;12.302;2024-03-25T00:25:02;4.68;;;2.55;;
72209;SDS011;60113;48.762;12.302;2024-03-25T00:27:28;4.03;;;2.35;;
72209;SDS011;60113;48.762;12.302;2024-03-25T00:29:55;4.20;;;2.33;;
72209;SDS011;60113;48.762;12.302;2024-03-25T00:32:21;3.67;;;2.22;;
72209;SDS011;60113;48.762;12.302;2024-03-25T00:34:46;5.00;;;2.45;;
72209;SDS011;60113;48.762;12.302;2024-03-25T00:37:12;6.43;;;2.30;;
72209;SDS011;60113;48.762;12.302;2024-03-25T00:39:37;6.63;;;2.33;;
72209;SDS011;60113;48.762;12.302;2024-03-25T00:42:03;5.80;;;2.33;;
72209;SDS011;60113;48.762;12.302;2024-03-25T00:44:28;7.10;;;2.50;;
72209;SDS011;60113;48.762;12.302;2024-03-25T00:46:54;6.05;;;2.75;;
72209;SDS011;60113;48.762;12.302;2024-03-25T00:49:20;5.72;;;2.30;;
72209;SDS011;60113;48.762;12.302;2024-03-25T00:51:46;6.70;;;2.45;;
72209;SDS011;60113;48.762;12.302;2024-03-25T00:54:12;5.20;;;2.50;;
72209;SDS011;60113;48.762;12.302;2024-03-25T00:56:37;6.10;;;2.60;;
72209;SDS011;60113;48.762;12.302;2024-03-25T00:59:03;6.32;;;2.53;;
72209;SDS011;60113;48.762;12.302;2024-03-25T01:01:37;6.93;;;2.80;;
72209;SDS011;60113;48.762;12.302;2024-03-25T01:04:02;6.68;;;2.72;;
72209;SDS011;60113;48.762;12.302;2024-03-25T01:06:28;5.35;;;2.70;;
72209;SDS011;60113;48.762;12.302;2024-03-25T01:08:53;5.28;;;2.65;;
72209;SDS011;60113;48.762;12.302;2024-03-25T01:11:19;5.88;;;2.80;;
72209;SDS011;60113;48.762;12.302;2024-03-25T01:13:44;4.72;;;2.60;;
72209;SDS011;60113;48.762;12.302;2024-03-25T01:16:10;5.20;;;2.70;;
72209;SDS011;60113;48.762;12.302;2024-03-25T01:18:35;7.28;;;3.03;;
72209;SDS011;60113;48.762;12.302;2024-03-25T01:21:01;6.72;;;2.90;;
72209;SDS011;60113;48.762;12.302;2024-03-25T01:23:27;5.20;;;2.75;;
72209;SDS011;60113;48.762;12.302;2024-03-25T01:25:52;6.07;;;2.90;;
72209;SDS011;60113;48.762;12.302;2024-03-25T01:28:18;5.90;;;2.90;;
72209;SDS011;60113;48.762;12.302;2024-03-25T01:30:44;6.35;;;3.10;;
72209;SDS011;60113;48.762;12.302;2024-03-25T01:33:10;6.25;;;2.95;;
72209;SDS011;60113;48.762;12.302;2024-03-25T01:35:36;7.97;;;2.90;;
72209;SDS011;60113;48.762;12.302;2024-03-25T01:38:01;8.10;;;3.15;;
72209;SDS011;60113;48.762;12.302;2024-03-25T01:40:28;4.95;;;2.72;;
72209;SDS011;60113;48.762;12.302;2024-03-25T01:42:58;6.13;;;2.63;;
72209;SDS011;60113;48.762;12.302;2024-03-25T01:45:24;8.27;;;2.80;;
72209;SDS011;60113;48.762;12.302;2024-03-25T01:47:51;6.60;;;2.90;;
72209;SDS011;60113;48.762;12.302;2024-03-25T01:50:17;5.65;;;3.00;;
72209;SDS011;60113;48.762;12.302;2024-03-25T01:52:44;7.47;;;3.15;;
72209;SDS011;60113;48.762;12.302;2024-03-25T01:55:10;8.00;;;3.38;;
72209;SDS011;60113;48.762;12.302;2024-03-25T01:57:41;7.10;;;2.90;;
72209;SDS011;60113;48.762;12.302;2024-03-25T02:00:08;5.93;;;2.78;;
72209;SDS011;60113;48.762;12.302;2024-03-25T02:02:34;4.63;;;2.53;;
72209;SDS011;60113;48.762;12.302;2024-03-25T02:05:02;9.55;;;3.13;;
72209;SDS011;60113;48.762;12.302;2024-03-25T02:07:29;9.85;;;3.25;;
72209;SDS011;60113;48.762;12.302;2024-03-25T02:09:56;5.97;;;3.00;;
72209;SDS011;60113;48.762;12.302;2024-03-25T02:12:23;6.40;;;3.00;;
72209;SDS011;60113;48.762;12.302;2024-03-25T02:14:51;7.43;;;3.15;;
72209;SDS011;60113;48.762;12.302;2024-03-25T02:17:16;8.30;;;3.30;;
72209;SDS011;60113;48.762;12.302;2024-03-25T02:19:43;10.85;;;3.42;;
72209;SDS011;60113;48.762;12.302;2024-03-25T02:22:09;9.80;;;4.20;;
72209;SDS011;60113;48.762;12.302;2024-03-25T02:24:34;9.25;;;3.55;;
72209;SDS011;60113;48.762;12.302;2024-03-25T02:27:01;7.75;;;3.50;;
72209;SDS011;60113;48.762;12.302;2024-03-25T02:29:36;5.53;;;3.00;;
72209;SDS011;60113;48.762;12.302;2024-03-25T02:32:01;7.35;;;3.30;;
72209;SDS011;60113;48.762;12.302;2024-03-25T02:34:27;7.18;;;3.33;;
72209;SDS011;60113;48.762;12.302;2024-03-25T02:36:52;7.25;;;3.20;;
72209;SDS011;60113;48.762;12.302;2024-03-25T02:39:19;6.53;;;3.22;;
72209;SDS011;60113;48.762;12.302;2024-03-25T02:41:45;9.98;;;3.83;;
72209;SDS011;60113;48.762;12.302;2024-03-25T02:44:11;5.90;;;3.33;;
72209;SDS011;60113;48.762;12.302;2024-03-25T02:46:41;5.78;;;3.80;;
72209;SDS011;60113;48.762;12.302;2024-03-25T02:49:09;6.90;;;3.55;;
72209;SDS011;60113;48.762;12.302;2024-03-25T02:51:34;8.80;;;4.05;;
72209;SDS011;60113;48.762;12.302;2024-03-25T02:54:00;6.70;;;3.22;;
72209;SDS011;60113;48.762;12.302;2024-03-25T02:56:25;7.47;;;3.55;;
72209;SDS011;60113;48.762;12.302;2024-03-25T02:58:51;5.75;;;3.50;;
72209;SDS011;60113;48.762;12.302;2024-03-25T03:01:16;8.73;;;3.80;;
72209;SDS011;60113;48.762;12.302;2024-03-25T03:03:42;5.65;;;3.40;;
72209;SDS011;60113;48.762;12.302;2024-03-25T03:06:08;6.82;;;3.63;;
72209;SDS011;60113;48.762;12.302;2024-03-25T03:08:34;5.95;;;3.00;;
72209;SDS011;60113;48.762;12.302;2024-03-25T03:10:59;6.80;;;2.90;;
72209;SDS011;60113;48.762;12.302;2024-03-25T03:13:25;6.43;;;3.60;;
72209;SDS011;60113;48.762;12.302;2024-03-25T03:15:50;7.90;;;3.70;;
72209;SDS011;60113;48.762;12.302;2024-03-25T03:18:16;9.38;;;3.90;;
72209;SDS011;60113;48.762;12.302;2024-03-25T03:20:41;6.82;;;3.60;;
72209;SDS011;60113;48.762;12.302;2024-03-25T03:23:07;8.55;;;3.42;;
72209;SDS011;60113;48.762;12.302;2024-03-25T03:25:32;6.53;;;3.30;;
72209;SDS011;60113;48.762;12.302;2024-03-25T03:27:57;5.07;;;2.70;;
72209;SDS011;60113;48.762;12.302;2024-03-25T03:30:23;7.70;;;3.30;;
72209;SDS011;60113;48.762;12.302;2024-03-25T03:32:48;9.05;;;3.60;;
72209;SDS011;60113;48.762;12.302;2024-03-25T03:35:15;7.38;;;3.50;;
72209;SDS011;60113;48.762;12.302;2024-03-25T03:37:41;6.72;;;3.00;;
72209;SDS011;60113;48.762;12.302;2024-03-25T03:40:06;7.03;;;3.60;;
72209;SDS011;60113;48.762;12.302;2024-03-25T03:42:33;7.47;;;3.70;;
72209;SDS011;60113;48.762;12.302;2024-03-25T03:45:00;8.52;;;3.67;;
72209;SDS011;60113;48.762;12.302;2024-03-25T03:47:25;7.25;;;3.63;;
72209;SDS011;60113;48.762;12.302;2024-03-25T03:49:51;6.88;;;4.22;;
72209;SDS011;60113;48.762;12.302;2024-03-25T03:52:16;8.02;;;4.20;;
72209;SDS011;60113;48.762;12.302;2024-03-25T03:54:42;8.15;;;3.85;;
72209;SDS011;60113;48.762;12.302;2024-03-25T03:57:07;7.43;;;3.60;;
72209;SDS011;60113;48.762;12.302;2024-03-25T03:59:32;7.65;;;3.78;;
72209;SDS011;60113;48.762;12.302;2024-03-25T04:01:58;12.25;;;4.38;;
72209;SDS011;60113;48.762;12.302;2024-03-25T04:04:24;10.50;;;3.78;;
72209;SDS011;60113;48.762;12.302;2024-03-25T04:06:50;6.60;;;3.60;;
72209;SDS011;60113;48.762;12.302;2024-03-25T04:09:16;12.98;;;4.38;;
72209;SDS011;60113;48.762;12.302;2024-03-25T04:11:41;9.45;;;3.85;;
72209;SDS011;60113;48.762;12.302;2024-03-25T04:14:06;7.95;;;3.22;;
72209;SDS011;60113;48.762;12.302;2024-03-25T04:16:32;9.35;;;3.53;;
72209;SDS011;60113;48.762;12.302;2024-03-25T04:18:58;9.88;;;3.33;;
72209;SDS011;60113;48.762;12.302;2024-03-25T04:21:25;9.85;;;3.40;;
72209;SDS011;60113;48.762;12.302;2024-03-25T04:23:50;7.78;;;3.47;;
72209;SDS011;60113;48.762;12.302;2024-03-25T04:26:15;7.40;;;3.45;;
72209;SDS011;60113;48.762;12.302;2024-03-25T04:28:41;7.70;;;3.60;;
72209;SDS011;60113;48.762;12.302;2024-03-25T04:31:09;8.90;;;3.65;;
72209;SDS011;60113;48.762;12.302;2024-03-25T04:33:35;8.27;;;3.53;;
72209;SDS011;60113;48.762;12.302;2024-03-25T04:36:01;7.75;;;3.60;;
72209;SDS011;60113;48.762;12.302;2024-03-25T04:38:26;10.23;;;3.70;;
72209;SDS011;60113;48.762;12.302;2024-03-25T04:40:51;6.20;;;3.40;;
72209;SDS011;60113;48.762;12.302;2024-03-25T04:43:17;8.52;;;3.92;;
72209;SDS011;60113;48.762;12.302;2024-03-25T04:45:43;9.35;;;3.83;;
72209;SDS011;60113;48.762;12.302;2024-03-25T04:48:09;10.07;;;4.05;;
72209;SDS011;60113;48.762;12.302;2024-03-25T04:50:35;10.10;;;3.75;;
72209;SDS011;60113;48.762;12.302;2024-03-25T04:53:00;8.98;;;3.75;;
72209;SDS011;60113;48.762;12.302;2024-03-25T04:55:26;10.38;;;4.25;;
72209;SDS011;60113;48.762;12.302;2024-03-25T04:57:52;7.53;;;3.60;;
72209;SDS011;60113;48.762;12.302;2024-03-25T05:00:18;7.25;;;4.07;;
72209;SDS011;60113;48.762;12.302;2024-03-25T05:02:44;8.80;;;4.38;;
72209;SDS011;60113;48.762;12.302;2024-03-25T05:05:09;10.05;;;4.75;;
72209;SDS011;60113;48.762;12.302;2024-03-25T05:07:35;11.52;;;4.22;;
72209;SDS011;60113;48.762;12.302;2024-03-25T05:10:01;9.30;;;3.88;;
72209;SDS011;60113;48.762;12.302;2024-03-25T05:12:26;7.85;;;4.00;;
72209;SDS011;60113;48.762;12.302;2024-03-25T05:14:55;9.05;;;4.32;;
72209;SDS011;60113;48.762;12.302;2024-03-25T05:17:21;9.50;;;4.28;;
72209;SDS011;60113;48.762;12.302;2024-03-25T05:19:46;7.60;;;3.95;;
72209;SDS011;60113;48.762;12.302;2024-03-25T05:22:12;8.65;;;4.03;;
72209;SDS011;60113;48.762;12.302;2024-03-25T05:24:38;10.32;;;4.30;;
72209;SDS011;60113;48.762;12.302;2024-03-25T05:27:04;9.27;;;4.07;;
72209;SDS011;60113;48.762;12.302;2024-03-25T05:29:30;9.25;;;3.85;;
72209;SDS011;60113;48.762;12.302;2024-03-25T05:31:56;11.85;;;4.25;;
72209;SDS011;60113;48.762;12.302;2024-03-25T05:34:24;9.05;;;4.45;;
72209;SDS011;60113;48.762;12.302;2024-03-25T05:36:50;9.50;;;4.30;;
72209;SDS011;60113;48.762;12.302;2024-03-25T05:39:15;9.63;;;4.57;;
72209;SDS011;60113;48.762;12.302;2024-03-25T05:41:41;6.57;;;4.00;;
72209;SDS011;60113;48.762;12.302;2024-03-25T05:44:06;8.10;;;4.13;;
72209;SDS011;60113;48.762;12.302;2024-03-25T05:46:32;8.73;;;4.10;;
72209;SDS011;60113;48.762;12.302;2024-03-25T05:49:01;8.90;;;4.22;;
72209;SDS011;60113;48.762;12.302;2024-03-25T05:51:27;10.25;;;4.40;;
72209;SDS011;60113;48.762;12.302;2024-03-25T05:53:52;16.27;;;8.98;;
72209;SDS011;60113;48.762;12.302;2024-03-25T05:56:18;9.95;;;4.50;;
72209;SDS011;60113;48.762;12.302;2024-03-25T05:58:43;10.30;;;4.30;;
72209;SDS011;60113;48.762;12.302;2024-03-25T06:01:10;14.32;;;7.32;;
72209;SDS011;60113;48.762;12.302;2024-03-25T06:03:35;14.88;;;6.57;;
72209;SDS011;60113;48.762;12.302;2024-03-25T06:06:02;15.13;;;6.82;;
72209;SDS011;60113;48.762;12.302;2024-03-25T06:08:27;15.68;;;5.90;;
72209;SDS011;60113;48.762;12.302;2024-03-25T06:10:54;10.60;;;4.60;;
72209;SDS011;60113;48.762;12.302;2024-03-25T06:13:19;11.85;;;6.05;;
72209;SDS011;60113;48.762;12.302;2024-03-25T06:15:45;8.00;;;4.30;;
72209;SDS011;60113;48.762;12.302;2024-03-25T06:18:11;7.10;;;4.10;;
72209;SDS011;60113;48.762;12.302;2024-03-25T06:20:37;8.57;;;4.10;;
72209;SDS011;60113;48.762;12.302;2024-03-25T06:23:03;9.07;;;4.30;;
72209;SDS011;60113;48.762;12.302;2024-03-25T06:25:29;13.70;;;4.57;;
72209;SDS011;60113;48.762;12.302;2024-03-25T06:27:55;10.65;;;3.80;;
72209;SDS011;60113;48.762;12.302;2024-03-25T06:30:20;10.90;;;4.47;;
72209;SDS011;60113;48.762;12.302;2024-03-25T06:33:05;8.85;;;4.00;;
72209;SDS011;60113;48.762;12.302;2024-03-25T06:35:50;7.82;;;3.58;;
72209;SDS011;60113;48.762;12.302;2024-03-25T06:38:17;8.05;;;3.70;;
72209;SDS011;60113;48.762;12.302;2024-03-25T06:40:42;7.57;;;4.03;;
72209;SDS011;60113;48.762;12.302;2024-03-25T06:43:08;6.47;;;3.75;;
72209;SDS011;60113;48.762;12.302;2024-03-25T06:45:33;8.57;;;4.15;;
72209;SDS011;60113;48.762;12.302;2024-03-25T06:47:59;10.23;;;4.32;;
72209;SDS011;60113;48.762;12.302;2024-03-25T06:50:25;10.48;;;4.07;;
72209;SDS011;60113;48.762;12.302;2024-03-25T06:52:51;8.38;;;4.07;;
72209;SDS011;60113;48.762;12.302;2024-03-25T06:55:17;11.02;;;4.80;;
72209;SDS011;60113;48.762;12.302;2024-03-25T06:57:43;7.18;;;3.72;;
72209;SDS011;60113;48.762;12.302;2024-03-25T07:00:09;12.02;;;4.28;;
72209;SDS011;60113;48.762;12.302;2024-03-25T07:02:38;9.75;;;4.10;;
72209;SDS011;60113;48.762;12.302;2024-03-25T07:05:04;10.27;;;4.55;;
72209;SDS011;60113;48.762;12.302;2024-03-25T07:07:29;9.05;;;4.50;;
72209;SDS011;60113;48.762;12.302;2024-03-25T07:09:55;9.30;;;4.68;;
72209;SDS011;60113;48.762;12.302;2024-03-25T07:12:21;7.28;;;4.38;;
72209;SDS011;60113;48.762;12.302;2024-03-25T07:14:46;8.25;;;3.90;;
72209;SDS011;60113;48.762;12.302;2024-03-25T07:17:11;8.20;;;3.85;;
72209;SDS011;60113;48.762;12.302;2024-03-25T07:19:37;8.05;;;3.42;;
72209;SDS011;60113;48.762;12.302;2024-03-25T07:22:03;8.80;;;3.97;;
72209;SDS011;60113;48.762;12.302;2024-03-25T07:24:29;7.88;;;3.80;;
72209;SDS011;60113;48.762;12.302;2024-03-25T07:26:55;10.45;;;3.90;;
72209;SDS011;60113;48.762;12.302;2024-03-25T07:29:20;8.57;;;3.90;;
72209;SDS011;60113;48.762;12.302;2024-03-25T07:31:46;10.38;;;4.05;;
72209;SDS011;60113;48.762;12.302;2024-03-25T07:34:11;7.88;;;3.92;;
72209;SDS011;60113;48.762;12.302;2024-03-25T07:36:37;7.57;;;3.45;;
72209;SDS011;60113;48.762;12.302;2024-03-25T07:39:05;6.78;;;3.53;;
72209;SDS011;60113;48.762;12.302;2024-03-25T07:41:31;7.13;;;3.25;;
72209;SDS011;60113;48.762;12.302;2024-03-25T07:43:57;9.88;;;4.45;;
72209;SDS011;60113;48.762;12.302;2024-03-25T07:46:22;8.63;;;3.95;;
72209;SDS011;60113;48.762;12.302;2024-03-25T07:48:48;6.38;;;3.60;;
72209;SDS011;60113;48.762;12.302;2024-03-25T07:51:13;7.20;;;3.42;;
72209;SDS011;60113;48.762;12.302;2024-03-25T07:53:38;6.50;;;3.67;;
72209;SDS011;60113;48.762;12.302;2024-03-25T07:56:04;6.00;;;3.50;;
72209;SDS011;60113;48.762;12.302;2024-03-25T07:58:30;9.82;;;3.40;;
72209;SDS011;60113;48.762;12.302;2024-03-25T08:00:56;9.13;;;3.67;;
72209;SDS011;60113;48.762;12.302;2024-03-25T08:03:21;6.78;;;2.92;;
72209;SDS011;60113;48.762;12.302;2024-03-25T08:05:48;6.53;;;3.10;;
72209;SDS011;60113;48.762;12.302;2024-03-25T08:08:14;6.53;;;3.10;;
72209;SDS011;60113;48.762;12.302;2024-03-25T08:10:39;11.55;;;3.40;;
72209;SDS011;60113;48.762;12.302;2024-03-25T08:13:04;8.02;;;3.17;;
72209;SDS011;60113;48.762;12.302;2024-03-25T08:15:30;4.90;;;2.47;;
72209;SDS011;60113;48.762;12.302;2024-03-25T08:17:55;8.75;;;3.13;;
72209;SDS011;60113;48.762;12.302;2024-03-25T08:20:22;8.00;;;3.60;;
72209;SDS011;60113;48.762;12.302;2024-03-25T08:22:50;5.18;;;3.10;;
72209;SDS011;60113;48.762;12.302;2024-03-25T08:25:16;6.80;;;3.13;;
72209;SDS011;60113;48.762;12.302;2024-03-25T08:27:41;7.22;;;3.58;;
72209;SDS011;60113;48.762;12.302;2024-03-25T08:30:07;6.45;;;3.10;;
72209;SDS011;60113;48.762;12.302;2024-03-25T08:32:34;6.47;;;2.60;;
72209;SDS011;60113;48.762;12.302;2024-03-25T08:34:59;5.97;;;2.90;;
72209;SDS011;60113;48.762;12.302;2024-03-25T08:37:24;7.47;;;3.30;;
72209;SDS011;60113;48.762;12.302;2024-03-25T08:39:50;6.55;;;2.70;;
72209;SDS011;60113;48.762;12.302;2024-03-25T08:42:15;7.38;;;2.75;;
72209;SDS011;60113;48.762;12.302;2024-03-25T08:44:41;4.65;;;2.55;;
72209;SDS011;60113;48.762;12.302;2024-03-25T08:47:06;8.20;;;3.10;;
72209;SDS011;60113;48.762;12.302;2024-03-25T08:49:32;5.95;;;2.35;;
72209;SDS011;60113;48.762;12.302;2024-03-25T08:51:57;4.82;;;2.38;;
72209;SDS011;60113;48.762;12.302;2024-03-25T08:54:23;5.78;;;2.63;;
72209;SDS011;60113;48.762;12.302;2024-03-25T08:56:48;6.13;;;2.60;;
72209;SDS011;60113;48.762;12.302;2024-03-25T08:59:15;5.72;;;2.80;;
72209;SDS011;60113;48.762;12.302;2024-03-25T09:01:41;4.90;;;2.65;;
72209;SDS011;60113;48.762;12.302;2024-03-25T09:04:07;5.05;;;2.80;;
72209;SDS011;60113;48.762;12.302;2024-03-25T09:06:32;5.80;;;2.78;;
72209;SDS011;60113;48.762;12.302;2024-03-25T09:08:58;6.60;;;2.70;;
72209;SDS011;60113;48.762;12.302;2024-03-25T09:11:41;7.43;;;2.67;;
72209;SDS011;60113;48.762;12.302;2024-03-25T09:14:07;4.60;;;2.38;;
72209;SDS011;60113;48.762;12.302;2024-03-25T09:16:35;5.47;;;2.80;;
72209;SDS011;60113;48.762;12.302;2024-03-25T09:19:00;5.88;;;2.72;;
72209;SDS011;60113;48.762;12.302;2024-03-25T09:21:26;5.82;;;2.90;;
72209;SDS011;60113;48.762;12.302;2024-03-25T09:23:52;6.55;;;2.97;;
72209;SDS011;60113;48.762;12.302;2024-03-25T09:26:18;8.20;;;2.63;;
72209;SDS011;60113;48.762;12.302;2024-03-25T09:28:43;4.03;;;2.25;;
72209;SDS011;60113;48.762;12.302;2024-03-25T09:31:09;6.07;;;2.42;;
72209;SDS011;60113;48.762;12.302;2024-03-25T09:33:34;7.80;;;2.50;;
72209;SDS011;60113;48.762;12.302;2024-03-25T09:36:00;7.10;;;2.60;;
72209;SDS011;60113;48.762;12.302;2024-03-25T09:38:25;4.05;;;1.92;;
72209;SDS011;60113;48.762;12.302;2024-03-25T09:40:52;5.80;;;2.42;;
72209;SDS011;60113;48.762;12.302;2024-03-25T09:43:32;7.07;;;2.70;;
72209;SDS011;60113;48.762;12.302;2024-03-25T09:46:02;7.30;;;2.80;;
72209;SDS011;60113;48.762;12.302;2024-03-25T09:48:28;6.45;;;2.35;;
72209;SDS011;60113;48.762;12.302;2024-03-25T09:50:55;4.72;;;2.22;;
72209;SDS011;60113;48.762;12.302;2024-03-25T09:53:21;4.30;;;2.35;;
72209;SDS011;60113;48.762;12.302;2024-03-25T09:55:47;5.55;;;2.60;;
72209;SDS011;60113;48.762;12.302;2024-03-25T09:58:13;5.20;;;2.30;;
72209;SDS011;60113;48.762;12.302;2024-03-25T10:00:42;4.15;;;2.10;;
72209;SDS011;60113;48.762;12.302;2024-03-25T10:03:08;3.72;;;2.10;;
72209;SDS011;60113;48.762;12.302;2024-03-25T10:05:34;10.80;;;2.28;;
72209;SDS011;60113;48.762;12.302;2024-03-25T10:07:59;3.20;;;1.83;;
72209;SDS011;60113;48.762;12.302;2024-03-25T10:10:26;5.13;;;2.00;;
72209;SDS011;60113;48.762;12.302;2024-03-25T10:12:54;5.88;;;2.28;;
72209;SDS011;60113;48.762;12.302;2024-03-25T10:15:20;6.70;;;2.50;;
72209;SDS011;60113;48.762;12.302;2024-03-25T10:17:48;5.75;;;2.20;;
72209;SDS011;60113;48.762;12.302;2024-03-25T10:20:15;5.47;;;2.10;;
72209;SDS011;60113;48.762;12.302;2024-03-25T10:22:43;7.32;;;2.35;;
72209;SDS011;60113;48.762;12.302;2024-03-25T10:25:28;4.68;;;2.10;;
72209;SDS011;60113;48.762;12.302;2024-03-25T10:27:59;4.97;;;2.40;;
72209;SDS011;60113;48.762;12.302;2024-03-25T10:30:28;4.68;;;2.40;;
72209;SDS011;60113;48.762;12.302;2024-03-25T10:33:28;4.22;;;2.45;;
72209;SDS011;60113;48.762;12.302;2024-03-25T10:35:47;6.68;;;2.70;;
72209;SDS011;60113;48.762;12.302;2024-03-25T10:38:18;3.90;;;2.30;;
72209;SDS011;60113;48.762;12.302;2024-03-25T10:40:44;7.22;;;2.65;;
72209;SDS011;60113;48.762;12.302;2024-03-25T10:43:11;4.25;;;2.40;;
72209;SDS011;60113;48.762;12.302;2024-03-25T10:45:42;3.83;;;2.00;;
72209;SDS011;60113;48.762;12.302;2024-03-25T10:50:49;7.78;;;2.90;;
72209;SDS011;60113;48.762;12.302;2024-03-25T10:53:17;3.75;;;2.10;;
72209;SDS011;60113;48.762;12.302;2024-03-25T10:55:46;4.03;;;2.40;;
72209;SDS011;60113;48.762;12.302;2024-03-25T10:58:15;4.55;;;3.13;;
72209;SDS011;60113;48.762;12.302;2024-03-25T11:00:43;3.80;;;1.80;;
72209;SDS011;60113;48.762;12.302;2024-03-25T11:03:09;3.17;;;2.13;;
72209;SDS011;60113;48.762;12.302;2024-03-25T11:05:36;4.85;;;2.20;;
72209;SDS011;60113;48.762;12.302;2024-03-25T11:10:40;3.17;;;2.03;;
72209;SDS011;60113;48.762;12.302;2024-03-25T11:13:14;4.75;;;2.70;;
72209;SDS011;60113;48.762;12.302;2024-03-25T11:15:43;4.32;;;2.35;;
72209;SDS011;60113;48.762;12.302;2024-03-25T11:18:15;5.15;;;2.63;;
72209;SDS011;60113;48.762;12.302;2024-03-25T11:20:43;5.75;;;3.20;;
72209;SDS011;60113;48.762;12.302;2024-03-25T11:23:09;4.88;;;3.10;;
72209;SDS011;60113;48.762;12.302;2024-03-25T11:25:36;6.60;;;3.30;;
72209;SDS011;60113;48.762;12.302;2024-03-25T11:28:03;5.75;;;3.22;;
72209;SDS011;60113;48.762;12.302;2024-03-25T11:30:29;5.35;;;2.83;;
72209;SDS011;60113;48.762;12.302;2024-03-25T11:32:58;7.10;;;2.92;;
72209;SDS011;60113;48.762;12.302;2024-03-25T11:35:26;7.63;;;2.90;;
72209;SDS011;60113;48.762;12.302;2024-03-25T11:37:51;4.10;;;2.47;;
72209;SDS011;60113;48.762;12.302;2024-03-25T11:40:17;9.65;;;5.82;;
72209;SDS011;60113;48.762;12.302;2024-03-25T11:42:43;6.75;;;3.95;;
72209;SDS011;60113;48.762;12.302;2024-03-25T11:45:13;7.53;;;4.47;;
72209;SDS011;60113;48.762;12.302;2024-03-25T11:47:44;6.20;;;3.30;;
72209;SDS011;60113;48.762;12.302;2024-03-25T11:50:14;3.70;;;2.55;;
72209;SDS011;60113;48.762;12.302;2024-03-25T11:52:40;4.53;;;2.28;;
72209;SDS011;60113;48.762;12.302;2024-03-25T11:55:06;5.63;;;2.80;;
72209;SDS011;60113;48.762;12.302;2024-03-25T11:57:37;4.22;;;2.38;;
72209;SDS011;60113;48.762;12.302;2024-03-25T12:00:04;4.30;;;2.53;;
72209;SDS011;60113;48.762;12.302;2024-03-25T12:02:35;4.77;;;2.53;;
72209;SDS011;60113;48.762;12.302;2024-03-25T12:05:02;5.93;;;2.80;;
72209;SDS011;60113;48.762;12.302;2024-03-25T12:07:29;5.93;;;3.22;;
72209;SDS011;60113;48.762;12.302;2024-03-25T12:09:54;7.15;;;2.35;;
72209;SDS011;60113;48.762;12.302;2024-03-25T12:12:38;6.30;;;2.45;;
72209;SDS011;60113;48.762;12.302;2024-03-25T12:15:04;4.03;;;2.08;;
72209;SDS011;60113;48.762;12.302;2024-03-25T12:17:32;4.72;;;2.40;;
72209;SDS011;60113;48.762;12.302;2024-03-25T12:19:59;6.15;;;2.30;;
72209;SDS011;60113;48.762;12.302;2024-03-25T12:22:29;6.80;;;2.50;;
72209;SDS011;60113;48.762;12.302;2024-03-25T12:24:59;5.00;;;2.42;;
72209;SDS011;60113;48.762;12.302;2024-03-25T12:27:28;4.22;;;2.30;;
72209;SDS011;60113;48.762;12.302;2024-03-25T12:30:09;4.18;;;2.10;;
72209;SDS011;60113;48.762;12.302;2024-03-25T12:32:39;5.93;;;2.60;;
72209;SDS011;60113;48.762;12.302;2024-03-25T12:35:07;4.20;;;1.80;;
72209;SDS011;60113;48.762;12.302;2024-03-25T12:37:34;6.07;;;2.15;;
72209;SDS011;60113;48.762;12.302;2024-03-25T12:39:59;3.92;;;1.73;;
72209;SDS011;60113;48.762;12.302;2024-03-25T12:42:25;4.25;;;1.88;;
72209;SDS011;60113;48.762;12.302;2024-03-25T12:44:56;3.25;;;1.70;;
72209;SDS011;60113;48.762;12.302;2024-03-25T12:47:22;3.72;;;1.90;;
72209;SDS011;60113;48.762;12.302;2024-03-25T12:49:48;3.17;;;2.00;;
72209;SDS011;60113;48.762;12.302;2024-03-25T12:52:13;4.75;;;1.90;;
72209;SDS011;60113;48.762;12.302;2024-03-25T12:54:40;4.07;;;2.15;;
72209;SDS011;60113;48.762;12.302;2024-03-25T12:57:07;3.83;;;1.80;;
72209;SDS011;60113;48.762;12.302;2024-03-25T12:59:33;4.07;;;1.98;;
72209;SDS011;60113;48.762;12.302;2024-03-25T13:01:58;4.47;;;2.08;;
72209;SDS011;60113;48.762;12.302;2024-03-25T13:04:25;3.85;;;1.90;;
72209;SDS011;60113;48.762;12.302;2024-03-25T13:06:51;3.17;;;2.00;;
72209;SDS011;60113;48.762;12.302;2024-03-25T13:09:16;4.45;;;2.33;;
72209;SDS011;60113;48.762;12.302;2024-03-25T13:11:42;3.35;;;2.35;;
72209;SDS011;60113;48.762;12.302;2024-03-25T13:14:11;3.95;;;1.85;;
72209;SDS011;60113;48.762;12.302;2024-03-25T13:16:38;4.50;;;1.92;;
72209;SDS011;60113;48.762;12.302;2024-03-25T13:19:04;3.28;;;2.05;;
72209;SDS011;60113;48.762;12.302;2024-03-25T13:21:29;2.88;;;1.80;;
72209;SDS011;60113;48.762;12.302;2024-03-25T13:23:55;4.15;;;2.10;;
72209;SDS011;60113;48.762;12.302;2024-03-25T13:26:20;8.13;;;1.58;;
72209;SDS011;60113;48.762;12.302;2024-03-25T13:28:46;4.28;;;1.50;;
72209;SDS011;60113;48.762;12.302;2024-03-25T13:31:12;3.15;;;2.05;;
72209;SDS011;60113;48.762;12.302;2024-03-25T13:33:38;4.53;;;1.67;;
72209;SDS011;60113;48.762;12.302;2024-03-25T13:36:06;2.55;;;1.70;;
72209;SDS011;60113;48.762;12.302;2024-03-25T13:38:32;4.13;;;2.13;;
72209;SDS011;60113;48.762;12.302;2024-03-25T13:40:59;6.65;;;2.20;;
72209;SDS011;60113;48.762;12.302;2024-03-25T13:43:25;3.97;;;1.90;;
72209;SDS011;60113;48.762;12.302;2024-03-25T13:45:52;3.00;;;1.67;;
72209;SDS011;60113;48.762;12.302;2024-03-25T13:48:17;4.35;;;1.63;;
72209;SDS011;60113;48.762;12.302;2024-03-25T13:50:43;4.40;;;1.73;;
72209;SDS011;60113;48.762;12.302;2024-03-25T13:53:08;3.90;;;1.60;;
72209;SDS011;60113;48.762;12.302;2024-03-25T13:55:35;2.78;;;1.48;;
72209;SDS011;60113;48.762;12.302;2024-03-25T13:58:00;5.15;;;1.63;;
72209;SDS011;60113;48.762;12.302;2024-03-25T14:00:26;1.77;;;1.30;;
72209;SDS011;60113;48.762;12.302;2024-03-25T14:03:03;4.05;;;1.50;;
72209;SDS011;60113;48.762;12.302;2024-03-25T14:05:28;4.88;;;1.52;;
72209;SDS011;60113;48.762;12.302;2024-03-25T14:07:54;3.45;;;1.35;;
72209;SDS011;60113;48.762;12.302;2024-03-25T14:10:19;2.55;;;1.45;;
72209;SDS011;60113;48.762;12.302;2024-03-25T14:12:45;3.30;;;1.50;;
72209;SDS011;60113;48.762;12.302;2024-03-25T14:15:10;7.85;;;1.20;;
72209;SDS011;60113;48.762;12.302;2024-03-25T14:17:38;2.97;;;1.80;;
72209;SDS011;60113;48.762;12.302;2024-03-25T14:20:05;4.40;;;1.80;;
72209;SDS011;60113;48.762;12.302;2024-03-25T14:22:32;2.67;;;1.30;;
72209;SDS011;60113;48.762;12.302;2024-03-25T14:24:59;3.70;;;1.45;;
72209;SDS011;60113;48.762;12.302;2024-03-25T14:27:25;3.30;;;1.23;;
72209;SDS011;60113;48.762;12.302;2024-03-25T14:29:51;3.47;;;1.40;;
72209;SDS011;60113;48.762;12.302;2024-03-25T14:32:19;3.20;;;1.33;;
72209;SDS011;60113;48.762;12.302;2024-03-25T14:37:15;2.40;;;1.27;;